Time;durP1;ratioP1;P1;durP2;ratioP2;P2;SDS_P1;SDS_P2;PMS_P1;PMS_P2;Temp;Humidity;BMP_temperature;BMP_pressure;BME280_temperature;BME280_humidity;BME280_pressure;Samples;Min_cycle;Max_cycle;Signal;HPM_P1;HPM_P2
2022/06/24 00:00:50;;;;;;;10.20;4.70;;;;;;;;;;5344316;27;20020;-68
2022/06/24 00:03:21;;;;;;;9.40;4.13;;;;;;;;;;5344815;28;20620;-68
2022/06/24 00:05:56;;;;;;;12.03;5.10;;;;;;;;;;5345372;27;20023;-68
2022/06/24 00:08:27;;;;;;;11.40;5.35;;;;;;;;;;5343771;28;20272;-68
2022/06/24 00:11:10;;;;;;;11.67;5.70;;;;;;;;;;5345124;28;20449;-68
2022/06/24 00:13:43;;;;;;;11.75;6.43;;;;;;;;;;5344273;28;20261;-68
2022/06/24 00:16:15;;;;;;;20.95;9.60;;;;;;;;;;5345057;28;20016;-68
2022/06/24 00:19:06;;;;;;;20.70;11.88;;;;;;;;;;5344777;28;20011;-68
2022/06/24 00:21:37;;;;;;;24.38;14.68;;;;;;;;;;5343827;27;20141;-68
2022/06/24 00:24:19;;;;;;;20.08;16.35;;;;;;;;;;5344696;28;20035;-68
2022/06/24 00:26:50;;;;;;;27.90;20.08;;;;;;;;;;5345170;28;20129;-68
2022/06/24 00:29:24;;;;;;;22.40;19.73;;;;;;;;;;5344919;27;20106;-68
2022/06/24 00:32:04;;;;;;;23.50;19.08;;;;;;;;;;5349071;27;20888;-68
2022/06/24 00:34:36;;;;;;;17.45;13.20;;;;;;;;;;5348824;27;20020;-68
2022/06/24 00:37:23;;;;;;;13.82;12.13;;;;;;;;;;5347929;27;20019;-68
2022/06/24 00:39:59;;;;;;;12.38;11.05;;;;;;;;;;5348915;27;20031;-68
2022/06/24 00:42:31;;;;;;;13.23;10.75;;;;;;;;;;5347503;27;20015;-68
2022/06/24 00:45:21;;;;;;;14.38;8.25;;;;;;;;;;5348812;27;20470;-68
2022/06/24 00:47:53;;;;;;;14.02;6.85;;;;;;;;;;5348836;27;20053;-68
2022/06/24 00:50:28;;;;;;;7.95;7.15;;;;;;;;;;5347312;27;20228;-68
2022/06/24 00:53:00;;;;;;;8.55;5.97;;;;;;;;;;5348637;27;20037;-68
2022/06/24 00:55:34;;;;;;;4.95;3.42;;;;;;;;;;5348177;27;20089;-68
2022/06/24 00:58:10;;;;;;;3.95;2.83;;;;;;;;;;5347399;27;20026;-68
2022/06/24 01:00:49;;;;;;;4.63;1.83;;;;;;;;;;5348306;27;20037;-68
2022/06/24 01:03:33;;;;;;;3.17;1.30;;;;;;;;;;5347088;27;20521;-68
2022/06/24 01:06:05;;;;;;;2.83;1.17;;;;;;;;;;5348473;27;20118;-68
2022/06/24 01:08:36;;;;;;;2.55;1.00;;;;;;;;;;5348159;27;20102;-68
2022/06/24 01:11:07;;;;;;;2.50;0.82;;;;;;;;;;5347469;27;20015;-67
2022/06/24 01:13:38;;;;;;;2.40;0.70;;;;;;;;;;5348156;27;20055;-68
2022/06/24 01:16:09;;;;;;;1.80;0.65;;;;;;;;;;5348224;27;20261;-68
2022/06/24 01:18:41;;;;;;;2.75;0.77;;;;;;;;;;5347477;27;20047;-69
2022/06/24 01:21:31;;;;;;;2.70;0.98;;;;;;;;;;5347907;27;20062;-68
2022/06/24 01:24:15;;;;;;;2.70;0.73;;;;;;;;;;5346924;27;20406;-68
2022/06/24 01:27:06;;;;;;;5.05;0.73;;;;;;;;;;5347928;27;20045;-68
2022/06/24 01:29:37;;;;;;;3.20;0.77;;;;;;;;;;5347503;27;20032;-68
2022/06/24 01:32:08;;;;;;;1.30;0.50;;;;;;;;;;5346726;27;20482;-68
2022/06/24 01:34:39;;;;;;;2.33;0.57;;;;;;;;;;5347670;27;20015;-68
2022/06/24 01:37:11;;;;;;;1.55;0.50;;;;;;;;;;5347731;27;20307;-68
2022/06/24 01:39:42;;;;;;;1.83;0.50;;;;;;;;;;5346882;27;20293;-68
2022/06/24 01:42:13;;;;;;;1.40;0.50;;;;;;;;;;5346231;27;20019;-68
2022/06/24 01:44:44;;;;;;;2.38;0.40;;;;;;;;;;5347339;27;20355;-68
2022/06/24 01:47:15;;;;;;;1.77;0.40;;;;;;;;;;5346824;27;20043;-68
2022/06/24 01:49:46;;;;;;;1.80;0.40;;;;;;;;;;5347502;27;20050;-68
2022/06/24 01:52:18;;;;;;;1.07;0.40;;;;;;;;;;5346653;27;20286;-68
2022/06/24 01:54:49;;;;;;;1.38;0.30;;;;;;;;;;5347464;27;20264;-68
2022/06/24 01:57:20;;;;;;;1.13;0.43;;;;;;;;;;5346804;27;20015;-68
2022/06/24 01:59:51;;;;;;;1.85;0.38;;;;;;;;;;5346914;27;20280;-68
2022/06/24 02:02:22;;;;;;;2.40;0.40;;;;;;;;;;5347033;27;20019;-68
2022/06/24 02:04:54;;;;;;;1.17;0.30;;;;;;;;;;5347482;27;20136;-68
2022/06/24 02:07:25;;;;;;;0.90;0.35;;;;;;;;;;5346142;27;20288;-68
2022/06/24 02:15:36;;;;;;;0.77;0.40;;;;;;;;;;5346133;27;20027;-68
2022/06/24 02:18:09;;;;;;;1.10;0.30;;;;;;;;;;5346702;27;20019;-68
2022/06/24 02:20:40;;;;;;;1.30;0.35;;;;;;;;;;5345779;27;20042;-68
2022/06/24 02:23:11;;;;;;;1.38;0.30;;;;;;;;;;5346399;27;20478;-68
2022/06/24 02:25:42;;;;;;;2.78;0.45;;;;;;;;;;5346592;27;20760;-68
2022/06/24 02:28:14;;;;;;;1.40;0.50;;;;;;;;;;5345887;27;20011;-68
2022/06/24 02:30:46;;;;;;;2.03;0.45;;;;;;;;;;5346379;27;20276;-68
2022/06/24 02:33:17;;;;;;;1.63;0.50;;;;;;;;;;5346627;27;20030;-69
2022/06/24 02:35:48;;;;;;;3.03;0.50;;;;;;;;;;5345717;27;20019;-68
2022/06/24 02:38:19;;;;;;;2.72;0.52;;;;;;;;;;5346026;27;20339;-68
2022/06/24 02:40:53;;;;;;;2.63;0.97;;;;;;;;;;5346544;27;20076;-68
2022/06/24 02:43:26;;;;;;;1.67;0.60;;;;;;;;;;5344956;27;20349;-68
2022/06/24 02:46:02;;;;;;;1.98;0.60;;;;;;;;;;5346545;27;20106;-68
2022/06/24 02:48:35;;;;;;;2.88;0.65;;;;;;;;;;5345121;27;20023;-68
2022/06/24 02:51:15;;;;;;;2.38;0.50;;;;;;;;;;5346125;27;20534;-68
2022/06/24 02:53:46;;;;;;;1.00;0.57;;;;;;;;;;5345678;27;20022;-68
2022/06/24 02:56:17;;;;;;;2.30;0.60;;;;;;;;;;5345334;27;20023;-68
2022/06/24 02:58:49;;;;;;;1.57;0.50;;;;;;;;;;5345854;27;20268;-68
2022/06/24 03:01:20;;;;;;;1.90;0.90;;;;;;;;;;5345541;27;20360;-68
2022/06/24 03:03:51;;;;;;;1.37;0.90;;;;;;;;;;5345381;27;20034;-68
2022/06/24 03:06:22;;;;;;;2.20;1.10;;;;;;;;;;5345641;27;20261;-67
2022/06/24 03:08:53;;;;;;;1.80;0.93;;;;;;;;;;5346106;27;20015;-67
2022/06/24 03:11:25;;;;;;;1.75;1.00;;;;;;;;;;5344840;27;20035;-67
2022/06/24 03:13:56;;;;;;;1.97;1.00;;;;;;;;;;5345928;27;20049;-67
2022/06/24 03:16:27;;;;;;;3.72;1.23;;;;;;;;;;5345127;27;20257;-67
2022/06/24 03:18:58;;;;;;;1.77;0.80;;;;;;;;;;5345348;27;20016;-67
2022/06/24 03:21:29;;;;;;;1.90;1.02;;;;;;;;;;5345170;27;20070;-67
2022/06/24 03:24:01;;;;;;;1.85;0.90;;;;;;;;;;5344442;27;20045;-67
2022/06/24 03:26:32;;;;;;;2.57;1.23;;;;;;;;;;5345209;27;20034;-67
2022/06/24 03:29:03;;;;;;;1.92;1.40;;;;;;;;;;5345204;27;20273;-67
2022/06/24 03:31:34;;;;;;;3.87;2.03;;;;;;;;;;5344623;27;20268;-67
2022/06/24 03:34:05;;;;;;;4.07;1.95;;;;;;;;;;5345163;27;20261;-67
2022/06/24 03:36:36;;;;;;;3.50;1.48;;;;;;;;;;5345215;27;20536;-67
2022/06/24 03:39:08;;;;;;;3.95;1.77;;;;;;;;;;5344267;27;20782;-67
2022/06/24 03:41:39;;;;;;;3.47;2.10;;;;;;;;;;5344998;27;20280;-68
2022/06/24 03:44:10;;;;;;;4.05;2.17;;;;;;;;;;5345179;27;20260;-67
2022/06/24 03:46:41;;;;;;;4.32;2.10;;;;;;;;;;5344421;27;20098;-67
2022/06/24 03:49:13;;;;;;;3.60;3.13;;;;;;;;;;5345029;27;20067;-67
2022/06/24 03:51:45;;;;;;;2.67;2.15;;;;;;;;;;5344125;27;20268;-67
2022/06/24 03:54:16;;;;;;;3.42;2.08;;;;;;;;;;5345162;27;20019;-67
2022/06/24 03:56:47;;;;;;;3.50;2.22;;;;;;;;;;5345106;28;20026;-67
2022/06/24 03:59:19;;;;;;;2.97;2.10;;;;;;;;;;5343932;28;20034;-68
2022/06/24 04:01:50;;;;;;;4.38;2.40;;;;;;;;;;5345288;28;20094;-67
2022/06/24 04:04:21;;;;;;;3.67;2.10;;;;;;;;;;5345942;27;20015;-67
2022/06/24 04:06:52;;;;;;;5.13;2.33;;;;;;;;;;5348877;27;20265;-69
2022/06/24 04:09:23;;;;;;;3.38;2.65;;;;;;;;;;5349131;27;20817;-67
2022/06/24 04:11:55;;;;;;;5.25;3.10;;;;;;;;;;5349785;27;20096;-69
2022/06/24 04:17:15;;;;;;;8.18;3.17;;;;;;;;;;5349201;27;20711;-69
2022/06/24 04:19:46;;;;;;;5.03;3.90;;;;;;;;;;5348875;27;20027;-70
2022/06/24 04:22:18;;;;;;;3.72;3.35;;;;;;;;;;5348523;27;20272;-67
2022/06/24 04:24:49;;;;;;;4.50;3.65;;;;;;;;;;5349086;27;20268;-67
2022/06/24 04:27:20;;;;;;;3.53;3.22;;;;;;;;;;5347626;27;20037;-67
2022/06/24 04:29:51;;;;;;;4.85;3.60;;;;;;;;;;5349373;27;20372;-69
2022/06/24 04:32:22;;;;;;;4.05;3.38;;;;;;;;;;5348761;27;20015;-69
2022/06/24 04:34:53;;;;;;;3.00;2.70;;;;;;;;;;5348459;27;20264;-69
2022/06/24 04:37:25;;;;;;;6.93;3.95;;;;;;;;;;5348596;27;20022;-69
2022/06/24 04:39:58;;;;;;;3.97;3.67;;;;;;;;;;5348930;27;20048;-69
2022/06/24 04:42:29;;;;;;;7.93;4.80;;;;;;;;;;5347434;27;20019;-69
2022/06/24 04:45:00;;;;;;;7.57;5.65;;;;;;;;;;5348858;27;20458;-70
2022/06/24 04:47:31;;;;;;;5.82;4.63;;;;;;;;;;5348509;27;20025;-70
2022/06/24 04:50:03;;;;;;;6.93;4.75;;;;;;;;;;5347887;27;20019;-69
2022/06/24 04:52:34;;;;;;;5.88;5.32;;;;;;;;;;5348379;27;20015;-69
2022/06/24 04:55:06;;;;;;;6.03;5.43;;;;;;;;;;5347826;27;20015;-69
2022/06/24 04:57:38;;;;;;;6.32;5.18;;;;;;;;;;5348364;27;20019;-69
2022/06/24 05:00:10;;;;;;;5.40;5.00;;;;;;;;;;5348445;27;20035;-69
2022/06/24 05:02:42;;;;;;;5.57;5.03;;;;;;;;;;5347509;27;20023;-69
2022/06/24 05:05:13;;;;;;;6.47;5.40;;;;;;;;;;5348558;27;20011;-69
2022/06/24 05:07:45;;;;;;;6.97;5.88;;;;;;;;;;5348176;27;20030;-69
2022/06/24 05:10:16;;;;;;;6.70;5.60;;;;;;;;;;5347487;27;20459;-69
2022/06/24 05:12:47;;;;;;;8.40;6.70;;;;;;;;;;5348115;27;20263;-69
2022/06/24 05:15:18;;;;;;;11.17;7.40;;;;;;;;;;5347517;27;20279;-70
2022/06/24 05:17:49;;;;;;;8.90;8.07;;;;;;;;;;5347540;27;20253;-69
2022/06/24 05:20:20;;;;;;;8.60;7.80;;;;;;;;;;5347624;27;20354;-69
2022/06/24 05:22:52;;;;;;;9.38;8.57;;;;;;;;;;5348183;27;20478;-69
2022/06/24 05:25:23;;;;;;;9.50;8.27;;;;;;;;;;5346781;27;20098;-68
2022/06/24 05:27:55;;;;;;;9.13;8.33;;;;;;;;;;5347955;27;20264;-67
2022/06/24 05:30:27;;;;;;;9.23;8.32;;;;;;;;;;5346502;27;20261;-68
2022/06/24 05:32:58;;;;;;;9.53;8.67;;;;;;;;;;5348128;27;20580;-68
2022/06/24 05:35:29;;;;;;;9.38;8.57;;;;;;;;;;5347372;27;20268;-67
2022/06/24 05:38:00;;;;;;;9.57;8.43;;;;;;;;;;5346831;27;20288;-67
2022/06/24 05:40:31;;;;;;;9.23;8.43;;;;;;;;;;5347200;27;20301;-69
2022/06/24 05:43:02;;;;;;;9.53;8.40;;;;;;;;;;5347354;27;20359;-67
2022/06/24 05:45:34;;;;;;;9.37;8.47;;;;;;;;;;5346439;27;20269;-68
2022/06/24 05:48:05;;;;;;;9.15;8.30;;;;;;;;;;5347405;27;20340;-68
2022/06/24 05:50:37;;;;;;;12.70;9.52;;;;;;;;;;5347283;27;20109;-67
2022/06/24 05:56:00;;;;;;;12.38;10.20;;;;;;;;;;5348068;27;20027;-67
2022/06/24 05:58:31;;;;;;;12.82;11.45;;;;;;;;;;5346004;27;20053;-68
2022/06/24 06:01:08;;;;;;;15.10;12.05;;;;;;;;;;5346938;27;20055;-68
2022/06/24 06:03:39;;;;;;;13.48;12.07;;;;;;;;;;5347153;27;20340;-67
2022/06/24 06:06:10;;;;;;;15.73;13.27;;;;;;;;;;5346330;27;20098;-68
2022/06/24 06:08:41;;;;;;;16.20;14.27;;;;;;;;;;5346791;27;20261;-67
2022/06/24 06:11:13;;;;;;;18.52;14.65;;;;;;;;;;5346830;27;20762;-68
2022/06/24 06:13:45;;;;;;;18.48;15.90;;;;;;;;;;5345675;27;20018;-67
2022/06/24 06:16:17;;;;;;;18.80;16.77;;;;;;;;;;5346648;27;20027;-68
2022/06/24 06:18:49;;;;;;;25.05;18.90;;;;;;;;;;5346634;27;20469;-68
2022/06/24 06:21:21;;;;;;;30.35;19.85;;;;;;;;;;5345472;27;20060;-68
2022/06/24 06:23:52;;;;;;;42.92;22.45;;;;;;;;;;5346698;27;20123;-67
2022/06/24 06:26:23;;;;;;;35.28;23.00;;;;;;;;;;5345251;27;20093;-68
2022/06/24 06:28:54;;;;;;;39.47;24.75;;;;;;;;;;5346560;27;20021;-68
2022/06/24 06:31:26;;;;;;;38.27;24.50;;;;;;;;;;5345757;27;20019;-68
2022/06/24 06:33:57;;;;;;;35.03;24.80;;;;;;;;;;5345107;27;20265;-68
2022/06/24 06:36:28;;;;;;;34.58;24.33;;;;;;;;;;5345022;27;20277;-68
2022/06/24 06:39:00;;;;;;;30.83;22.33;;;;;;;;;;5346509;27;20019;-68
2022/06/24 06:41:31;;;;;;;27.40;20.45;;;;;;;;;;5344989;27;20054;-68
2022/06/24 06:44:02;;;;;;;29.70;21.38;;;;;;;;;;5345999;27;20033;-68
2022/06/24 06:46:33;;;;;;;26.13;19.88;;;;;;;;;;5345963;27;20018;-68
2022/06/24 06:49:04;;;;;;;29.97;20.93;;;;;;;;;;5345097;27;20019;-68
2022/06/24 06:51:35;;;;;;;32.28;21.42;;;;;;;;;;5345815;27;20742;-68
2022/06/24 06:54:07;;;;;;;31.58;21.88;;;;;;;;;;5345808;27;20761;-68
2022/06/24 06:56:38;;;;;;;34.88;24.70;;;;;;;;;;5344939;27;20726;-68
2022/06/24 06:59:10;;;;;;;32.35;23.77;;;;;;;;;;5345595;27;20521;-68
2022/06/24 07:01:41;;;;;;;33.85;24.40;;;;;;;;;;5344774;27;20109;-68
2022/06/24 07:04:12;;;;;;;29.88;23.27;;;;;;;;;;5345863;27;20395;-68
2022/06/24 07:06:43;;;;;;;30.27;23.05;;;;;;;;;;5345481;27;20019;-68
2022/06/24 07:09:15;;;;;;;30.33;24.52;;;;;;;;;;5344855;27;20067;-68
2022/06/24 07:11:46;;;;;;;33.90;25.10;;;;;;;;;;5345422;27;20037;-68
2022/06/24 07:14:17;;;;;;;38.23;26.50;;;;;;;;;;5345560;27;20284;-68
2022/06/24 07:16:48;;;;;;;32.03;25.40;;;;;;;;;;5344697;27;20275;-68
2022/06/24 07:19:19;;;;;;;33.40;25.48;;;;;;;;;;5344735;27;20264;-68
2022/06/24 07:21:50;;;;;;;34.22;27.23;;;;;;;;;;5345607;27;20273;-68
2022/06/24 07:24:22;;;;;;;37.95;30.17;;;;;;;;;;5343836;27;20289;-68
2022/06/24 07:26:53;;;;;;;37.60;29.23;;;;;;;;;;5345803;27;20015;-68
2022/06/24 07:29:24;;;;;;;41.17;29.80;;;;;;;;;;5345055;27;20268;-68
2022/06/24 07:31:55;;;;;;;41.53;30.10;;;;;;;;;;5344670;27;20023;-68
2022/06/24 07:34:27;;;;;;;35.20;28.87;;;;;;;;;;5344802;27;20300;-68
2022/06/24 07:36:58;;;;;;;34.33;28.83;;;;;;;;;;5344490;27;20275;-68
2022/06/24 07:39:30;;;;;;;36.63;30.58;;;;;;;;;;5343919;27;20462;-68
2022/06/24 07:42:01;;;;;;;40.33;31.80;;;;;;;;;;5345384;27;20015;-68
2022/06/24 07:44:32;;;;;;;43.97;34.72;;;;;;;;;;5338886;27;20019;-68
2022/06/24 07:47:03;;;;;;;46.45;39.30;;;;;;;;;;5344315;27;20011;-69
2022/06/24 07:49:35;;;;;;;55.43;41.53;;;;;;;;;;5344180;27;20011;-69
2022/06/24 07:52:08;;;;;;;60.77;45.77;;;;;;;;;;5343750;27;20304;-70
2022/06/24 07:54:39;;;;;;;63.33;48.67;;;;;;;;;;5344776;28;20276;-70
2022/06/24 07:57:10;;;;;;;61.38;48.25;;;;;;;;;;5344939;28;20007;-70
2022/06/24 07:59:45;;;;;;;65.30;49.67;;;;;;;;;;5343590;28;20070;-69
2022/06/24 08:02:16;;;;;;;63.83;50.47;;;;;;;;;;5344560;28;20317;-69
2022/06/24 08:04:49;;;;;;;60.65;49.78;;;;;;;;;;5344792;28;20038;-69
2022/06/24 08:07:21;;;;;;;54.05;46.03;;;;;;;;;;5343427;28;20027;-69
2022/06/24 08:09:52;;;;;;;55.00;47.90;;;;;;;;;;5345120;28;20559;-68
2022/06/24 08:12:23;;;;;;;49.40;44.03;;;;;;;;;;5343498;28;20019;-68
2022/06/24 08:14:54;;;;;;;43.88;39.38;;;;;;;;;;5344939;28;20054;-68
2022/06/24 08:17:25;;;;;;;37.30;32.80;;;;;;;;;;5344376;28;20385;-68
2022/06/24 08:19:57;;;;;;;36.07;32.33;;;;;;;;;;5344098;28;20379;-68
2022/06/24 08:22:28;;;;;;;33.22;29.88;;;;;;;;;;5343974;28;20288;-69
2022/06/24 08:25:01;;;;;;;24.43;22.13;;;;;;;;;;5344907;28;20031;-69
2022/06/24 08:27:32;;;;;;;25.80;23.42;;;;;;;;;;5343672;28;20261;-69
2022/06/24 08:30:03;;;;;;;22.13;20.23;;;;;;;;;;5344410;28;20049;-68
2022/06/24 08:32:34;;;;;;;20.38;18.42;;;;;;;;;;5344283;28;20739;-69
2022/06/24 08:35:06;;;;;;;19.83;17.83;;;;;;;;;;5343734;28;20019;-69
2022/06/24 08:37:38;;;;;;;16.30;14.82;;;;;;;;;;5344746;28;20019;-69
2022/06/24 08:40:10;;;;;;;14.20;13.10;;;;;;;;;;5343800;28;20448;-69
2022/06/24 08:42:43;;;;;;;14.95;13.52;;;;;;;;;;5344496;28;20317;-68
2022/06/24 08:45:14;;;;;;;14.88;13.52;;;;;;;;;;5344562;28;20485;-68
2022/06/24 08:47:47;;;;;;;14.00;12.65;;;;;;;;;;5343660;28;20019;-69
2022/06/24 08:50:18;;;;;;;14.27;13.02;;;;;;;;;;5345526;27;20022;-71
2022/06/24 08:52:50;;;;;;;16.60;15.10;;;;;;;;;;5349095;27;20015;-68
2022/06/24 08:55:22;;;;;;;21.67;19.60;;;;;;;;;;5347351;27;20461;-68
2022/06/24 08:57:53;;;;;;;25.38;23.17;;;;;;;;;;5348626;27;20019;-70
2022/06/24 09:00:24;;;;;;;26.15;23.95;;;;;;;;;;5347470;27;20023;-70
2022/06/24 09:02:56;;;;;;;26.77;24.57;;;;;;;;;;5343603;27;20015;-69
2022/06/24 09:05:27;;;;;;;25.30;23.00;;;;;;;;;;5328098;27;20280;-69
2022/06/24 09:08:04;;;;;;;23.55;21.60;;;;;;;;;;5326116;28;20045;-68
2022/06/24 09:10:36;;;;;;;26.80;24.50;;;;;;;;;;5324912;28;20427;-68
2022/06/24 09:13:08;;;;;;;29.13;26.63;;;;;;;;;;5325504;27;20034;-69
2022/06/24 09:15:41;;;;;;;29.40;26.80;;;;;;;;;;5345977;27;20015;-69
2022/06/24 09:18:20;;;;;;;25.67;23.48;;;;;;;;;;5347156;27;20090;-69
2022/06/24 09:20:56;;;;;;;21.08;19.40;;;;;;;;;;5347316;27;20123;-69
2022/06/24 09:23:28;;;;;;;18.73;17.17;;;;;;;;;;5346480;27;20126;-69
2022/06/24 09:26:03;;;;;;;18.40;16.98;;;;;;;;;;5348228;27;20160;-69
2022/06/24 09:28:34;;;;;;;12.32;11.32;;;;;;;;;;5347522;27;20090;-68
2022/06/24 09:31:07;;;;;;;10.47;9.53;;;;;;;;;;5346722;27;20156;-68
2022/06/24 09:33:39;;;;;;;10.68;9.88;;;;;;;;;;5347365;27;20131;-68
2022/06/24 09:36:11;;;;;;;9.38;8.68;;;;;;;;;;5347308;27;20030;-69
2022/06/24 09:38:52;;;;;;;8.75;8.05;;;;;;;;;;5346764;27;20374;-67
2022/06/24 09:41:23;;;;;;;9.07;8.18;;;;;;;;;;5346982;27;20026;-68
2022/06/24 09:43:59;;;;;;;7.80;7.20;;;;;;;;;;5346831;27;20466;-68
2022/06/24 09:46:30;;;;;;;6.45;5.65;;;;;;;;;;5347155;27;20015;-68
2022/06/24 09:49:02;;;;;;;5.07;4.57;;;;;;;;;;5347213;27;20015;-70
2022/06/24 09:51:34;;;;;;;6.07;5.00;;;;;;;;;;5346509;27;20763;-69
2022/06/24 09:54:06;;;;;;;6.05;5.55;;;;;;;;;;5347155;27;20091;-69
2022/06/24 09:56:38;;;;;;;5.13;4.63;;;;;;;;;;5346998;27;20030;-69
2022/06/24 10:02:00;;;;;;;6.22;5.10;;;;;;;;;;5346353;27;20035;-68
2022/06/24 10:04:32;;;;;;;7.55;5.05;;;;;;;;;;5345946;27;20015;-69
2022/06/24 10:07:03;;;;;;;5.82;5.28;;;;;;;;;;5346899;27;20019;-69
2022/06/24 10:09:35;;;;;;;7.03;4.72;;;;;;;;;;5346892;27;20381;-68
2022/06/24 10:12:07;;;;;;;5.25;4.68;;;;;;;;;;5346195;27;20060;-68
2022/06/24 10:14:39;;;;;;;5.15;4.60;;;;;;;;;;5346696;27;20034;-68
2022/06/24 10:17:10;;;;;;;4.30;3.90;;;;;;;;;;5346575;27;20022;-69
2022/06/24 10:19:44;;;;;;;5.30;3.70;;;;;;;;;;5346051;27;20027;-68
2022/06/24 10:22:34;;;;;;;4.10;3.80;;;;;;;;;;5346587;27;20257;-68
2022/06/24 10:25:05;;;;;;;3.65;2.95;;;;;;;;;;5346603;27;20031;-69
2022/06/24 10:27:55;;;;;;;7.53;0.70;;;;;;;;;;5345648;27;20448;-68
2022/06/24 10:30:53;;;;;;;3.75;0.70;;;;;;;;;;5346014;27;20023;-68
2022/06/24 10:33:27;;;;;;;2.22;0.60;;;;;;;;;;5345440;27;20398;-69
2022/06/24 10:36:02;;;;;;;2.13;0.50;;;;;;;;;;5346472;27;20011;-69
2022/06/24 10:38:37;;;;;;;1.67;0.50;;;;;;;;;;5346399;27;20473;-68
2022/06/24 10:41:10;;;;;;;2.03;0.60;;;;;;;;;;5345424;27;20031;-68
2022/06/24 10:43:42;;;;;;;3.83;0.70;;;;;;;;;;5346134;27;20020;-68
2022/06/24 10:46:13;;;;;;;1.90;0.88;;;;;;;;;;5346050;27;20378;-68
2022/06/24 10:48:44;;;;;;;1.60;0.88;;;;;;;;;;5345204;27;20059;-67
2022/06/24 10:51:16;;;;;;;3.35;1.20;;;;;;;;;;5346285;27;20020;-67
2022/06/24 10:54:02;;;;;;;2.67;1.50;;;;;;;;;;5345411;27;20023;-68
2022/06/24 10:56:44;;;;;;;4.75;1.40;;;;;;;;;;5345880;27;20019;-68
2022/06/24 10:59:17;;;;;;;3.08;1.40;;;;;;;;;;5345714;27;20019;-68
2022/06/24 11:01:49;;;;;;;1.70;0.55;;;;;;;;;;5345192;27;20495;-68
2022/06/24 11:04:25;;;;;;;2.17;0.60;;;;;;;;;;5345440;27;20023;-68
2022/06/24 11:07:10;;;;;;;1.60;0.70;;;;;;;;;;5346184;27;20011;-67
2022/06/24 11:09:41;;;;;;;4.50;0.93;;;;;;;;;;5344853;27;20016;-67
2022/06/24 11:12:29;;;;;;;3.57;1.37;;;;;;;;;;5345817;27;20351;-69
2022/06/24 11:15:00;;;;;;;2.08;1.60;;;;;;;;;;5344949;27;20359;-68
2022/06/24 11:17:31;;;;;;;3.67;1.60;;;;;;;;;;5345367;27;20106;-68
2022/06/24 11:20:05;;;;;;;2.50;1.77;;;;;;;;;;5345526;27;20359;-68
2022/06/24 11:22:46;;;;;;;4.25;2.08;;;;;;;;;;5343758;27;20272;-69
2022/06/24 11:25:18;;;;;;;2.47;1.30;;;;;;;;;;5345404;27;20027;-69
2022/06/24 11:27:49;;;;;;;2.85;0.80;;;;;;;;;;5345597;27;20023;-69
2022/06/24 11:30:20;;;;;;;1.47;0.60;;;;;;;;;;5344052;27;20382;-68
2022/06/24 11:32:52;;;;;;;1.63;0.70;;;;;;;;;;5345733;27;20292;-67
2022/06/24 11:35:24;;;;;;;1.60;0.60;;;;;;;;;;5344949;27;20265;-68
2022/06/24 11:37:56;;;;;;;0.80;0.60;;;;;;;;;;5344713;27;20038;-68
2022/06/24 11:40:33;;;;;;;0.75;0.40;;;;;;;;;;5344813;27;20067;-68
2022/06/24 11:43:05;;;;;;;0.88;0.30;;;;;;;;;;5344562;27;20042;-69
2022/06/24 11:45:38;;;;;;;0.60;0.40;;;;;;;;;;5344950;27;20029;-70
2022/06/24 11:48:10;;;;;;;1.55;0.40;;;;;;;;;;5344685;27;20027;-68
2022/06/24 11:50:41;;;;;;;0.60;0.32;;;;;;;;;;5344052;27;20423;-68
2022/06/24 11:53:12;;;;;;;1.33;0.40;;;;;;;;;;5344916;27;20019;-68
2022/06/24 11:55:48;;;;;;;0.50;0.30;;;;;;;;;;5344965;28;20019;-68
2022/06/24 11:58:19;;;;;;;1.38;0.30;;;;;;;;;;5343712;28;20430;-68
2022/06/24 12:00:52;;;;;;;0.82;0.40;;;;;;;;;;5344947;28;20059;-68
2022/06/24 12:03:23;;;;;;;2.65;0.45;;;;;;;;;;5344665;28;20016;-68
2022/06/24 12:05:55;;;;;;;1.95;0.60;;;;;;;;;;5344316;28;20550;-68
2022/06/24 12:08:26;;;;;;;1.05;0.50;;;;;;;;;;5344661;28;20022;-68
2022/06/24 12:10:57;;;;;;;1.33;0.70;;;;;;;;;;5345110;28;20052;-68
2022/06/24 12:13:30;;;;;;;1.00;0.50;;;;;;;;;;5343582;28;20098;-68
2022/06/24 12:16:01;;;;;;;0.90;0.50;;;;;;;;;;5340811;28;20559;-68
2022/06/24 12:18:32;;;;;;;1.60;0.60;;;;;;;;;;5343583;28;20099;-68
2022/06/24 12:21:07;;;;;;;0.80;0.50;;;;;;;;;;5344558;28;20030;-68
2022/06/24 12:23:39;;;;;;;0.98;0.40;;;;;;;;;;5344436;28;20139;-68
2022/06/24 12:26:36;;;;;;;2.92;0.50;;;;;;;;;;5346340;27;20034;-68
2022/06/24 12:29:08;;;;;;;1.13;0.32;;;;;;;;;;5342969;27;20043;-68
2022/06/24 12:31:49;;;;;;;1.20;0.30;;;;;;;;;;5348871;27;20023;-68
2022/06/24 12:34:24;;;;;;;0.77;0.25;;;;;;;;;;5347796;27;20102;-68
2022/06/24 12:36:56;;;;;;;0.30;0.20;;;;;;;;;;5348425;27;20423;-68
2022/06/24 12:39:29;;;;;;;1.05;0.20;;;;;;;;;;5347002;27;20433;-68
2022/06/24 12:42:01;;;;;;;0.63;0.30;;;;;;;;;;5348453;27;20020;-68
2022/06/24 12:44:48;;;;;;;2.75;0.30;;;;;;;;;;5348246;27;20365;-68
2022/06/24 12:53:02;;;;;;;0.93;0.40;;;;;;;;;;5348639;27;20027;-69
2022/06/24 12:55:33;;;;;;;0.77;0.40;;;;;;;;;;5347708;27;20016;-69
2022/06/24 12:58:05;;;;;;;1.17;0.40;;;;;;;;;;5348154;27;20388;-69
2022/06/24 13:00:36;;;;;;;0.90;0.50;;;;;;;;;;5347388;27;20031;-69
2022/06/24 13:03:07;;;;;;;2.95;0.40;;;;;;;;;;5347922;27;20322;-69
2022/06/24 13:05:38;;;;;;;0.70;0.30;;;;;;;;;;5348006;27;20011;-69
2022/06/24 13:08:10;;;;;;;0.70;0.30;;;;;;;;;;5347208;27;20284;-69
2022/06/24 13:10:41;;;;;;;0.70;0.30;;;;;;;;;;5348046;27;20336;-69
2022/06/24 13:13:12;;;;;;;0.80;0.40;;;;;;;;;;5347916;27;20019;-69
2022/06/24 13:15:43;;;;;;;1.43;0.40;;;;;;;;;;5347320;27;20023;-69
2022/06/24 13:18:15;;;;;;;1.03;0.40;;;;;;;;;;5347923;27;20265;-69
2022/06/24 13:20:46;;;;;;;0.90;0.40;;;;;;;;;;5347569;27;20030;-69
2022/06/24 13:23:17;;;;;;;1.30;0.50;;;;;;;;;;5346521;27;20141;-69
2022/06/24 13:25:48;;;;;;;1.03;0.50;;;;;;;;;;5347794;27;20271;-69
2022/06/24 13:28:19;;;;;;;1.88;0.50;;;;;;;;;;5346744;27;20019;-71
2022/06/24 13:30:51;;;;;;;1.27;0.50;;;;;;;;;;5346801;27;20019;-69
2022/06/24 13:33:22;;;;;;;3.90;0.60;;;;;;;;;;5346931;27;20269;-69
2022/06/24 13:35:53;;;;;;;1.17;0.60;;;;;;;;;;5347166;27;20023;-69
2022/06/24 13:38:24;;;;;;;2.15;0.50;;;;;;;;;;5347241;27;20327;-69
2022/06/24 13:40:55;;;;;;;1.83;0.60;;;;;;;;;;5347937;27;20031;-69
2022/06/24 13:43:26;;;;;;;3.00;0.50;;;;;;;;;;5346272;27;20026;-69
2022/06/24 13:45:58;;;;;;;1.43;0.43;;;;;;;;;;5347930;27;20027;-70
2022/06/24 13:48:29;;;;;;;2.47;0.40;;;;;;;;;;5347228;27;20019;-69
2022/06/24 13:51:00;;;;;;;0.73;0.40;;;;;;;;;;5346737;27;20026;-69
2022/06/24 13:53:32;;;;;;;2.20;0.33;;;;;;;;;;5347364;27;20518;-69
2022/06/24 13:56:03;;;;;;;2.25;0.30;;;;;;;;;;5347262;27;20269;-69
2022/06/24 13:58:36;;;;;;;1.52;0.20;;;;;;;;;;5346390;27;20110;-70
2022/06/24 14:01:07;;;;;;;0.47;0.20;;;;;;;;;;5347214;27;20048;-70
2022/06/24 14:03:39;;;;;;;0.87;0.20;;;;;;;;;;5346208;27;20019;-69
2022/06/24 14:06:10;;;;;;;0.40;0.20;;;;;;;;;;5347012;27;20023;-68
2022/06/24 14:08:42;;;;;;;1.85;0.20;;;;;;;;;;5347019;27;20552;-69
2022/06/24 14:11:13;;;;;;;0.98;0.15;;;;;;;;;;5346422;27;20518;-70
2022/06/24 14:13:45;;;;;;;3.00;0.20;;;;;;;;;;5346926;27;20063;-69
2022/06/24 14:16:16;;;;;;;2.50;0.22;;;;;;;;;;5346703;27;20023;-70
2022/06/24 14:18:48;;;;;;;0.82;0.20;;;;;;;;;;5345731;27;20477;-69
2022/06/24 14:21:19;;;;;;;0.63;0.20;;;;;;;;;;5345918;27;20035;-71
2022/06/24 14:26:40;;;;;;;1.05;0.20;;;;;;;;;;5345528;27;20023;-70
2022/06/24 14:29:11;;;;;;;0.95;0.20;;;;;;;;;;5346352;27;20023;-70
2022/06/24 14:31:42;;;;;;;1.33;0.10;;;;;;;;;;5345508;27;20015;-70
2022/06/24 14:34:13;;;;;;;0.68;0.13;;;;;;;;;;5346380;27;20477;-70
2022/06/24 14:36:45;;;;;;;0.82;0.15;;;;;;;;;;5346586;27;20073;-70
2022/06/24 14:42:06;;;;;;;0.52;0.10;;;;;;;;;;5346564;27;20253;-71
2022/06/24 14:44:37;;;;;;;1.27;0.20;;;;;;;;;;5346376;27;20518;-70
2022/06/24 14:47:08;;;;;;;0.65;0.10;;;;;;;;;;5345320;27;20015;-70
2022/06/24 14:49:40;;;;;;;0.87;0.30;;;;;;;;;;5345642;27;20381;-70
2022/06/24 14:52:11;;;;;;;1.05;0.15;;;;;;;;;;5345973;27;20276;-70
2022/06/24 14:54:42;;;;;;;2.07;0.10;;;;;;;;;;5345120;27;20079;-70
2022/06/24 14:57:13;;;;;;;1.92;0.20;;;;;;;;;;5346045;27;20026;-70
2022/06/24 14:59:44;;;;;;;2.10;0.10;;;;;;;;;;5345960;27;20027;-70
2022/06/24 15:02:15;;;;;;;1.00;0.20;;;;;;;;;;5345086;27;20022;-70
2022/06/24 15:04:47;;;;;;;1.23;0.20;;;;;;;;;;5345826;27;20083;-71
2022/06/24 15:07:18;;;;;;;0.93;0.20;;;;;;;;;;5345042;27;20669;-71
2022/06/24 15:09:49;;;;;;;0.45;0.20;;;;;;;;;;5346110;27;20377;-70
2022/06/24 15:12:20;;;;;;;1.88;0.20;;;;;;;;;;5345440;27;20017;-71
2022/06/24 15:14:51;;;;;;;0.28;0.10;;;;;;;;;;5345089;27;20019;-71
2022/06/24 15:17:23;;;;;;;0.60;0.10;;;;;;;;;;5345304;27;20019;-71
2022/06/24 15:19:54;;;;;;;0.63;0.10;;;;;;;;;;5346030;27;20336;-70
2022/06/24 15:22:25;;;;;;;0.52;0.10;;;;;;;;;;5344475;27;20039;-71
2022/06/24 15:24:56;;;;;;;0.60;0.10;;;;;;;;;;5345766;27;20126;-70
2022/06/24 15:27:28;;;;;;;1.30;0.20;;;;;;;;;;5344984;27;20021;-70
2022/06/24 15:29:59;;;;;;;1.10;0.10;;;;;;;;;;5345471;27;20287;-70
2022/06/24 15:32:30;;;;;;;0.83;0.10;;;;;;;;;;5345073;27;20257;-70